sensor_id;sensor_type;location;lat;lon;timestamp;P1;durP1;ratioP1;P2;durP2;ratioP2
27533;SDS011;14973;51.460;7.008;2023-07-31T00:00:38;20.45;;;7.75;;
27533;SDS011;14973;51.460;7.008;2023-07-31T00:03:03;17.75;;;6.97;;
27533;SDS011;14973;51.460;7.008;2023-07-31T00:05:29;20.95;;;7.90;;
27533;SDS011;14973;51.460;7.008;2023-07-31T00:07:54;19.50;;;7.40;;
27533;SDS011;14973;51.460;7.008;2023-07-31T00:10:20;19.50;;;8.10;;
27533;SDS011;14973;51.460;7.008;2023-07-31T00:12:46;23.35;;;7.57;;
27533;SDS011;14973;51.460;7.008;2023-07-31T00:15:11;28.27;;;8.27;;
27533;SDS011;14973;51.460;7.008;2023-07-31T00:17:38;27.63;;;8.75;;
27533;SDS011;14973;51.460;7.008;2023-07-31T00:20:04;37.88;;;8.73;;
27533;SDS011;14973;51.460;7.008;2023-07-31T00:22:30;27.17;;;9.23;;
27533;SDS011;14973;51.460;7.008;2023-07-31T00:24:55;36.72;;;11.55;;
27533;SDS011;14973;51.460;7.008;2023-07-31T00:27:22;26.10;;;9.00;;
27533;SDS011;14973;51.460;7.008;2023-07-31T00:29:47;27.27;;;9.38;;
27533;SDS011;14973;51.460;7.008;2023-07-31T00:32:13;29.50;;;9.00;;
27533;SDS011;14973;51.460;7.008;2023-07-31T00:34:38;30.38;;;9.00;;
27533;SDS011;14973;51.460;7.008;2023-07-31T00:37:04;29.48;;;9.00;;
27533;SDS011;14973;51.460;7.008;2023-07-31T00:39:30;35.17;;;10.43;;
27533;SDS011;14973;51.460;7.008;2023-07-31T00:41:56;27.52;;;10.75;;
27533;SDS011;14973;51.460;7.008;2023-07-31T00:44:21;32.72;;;11.35;;
27533;SDS011;14973;51.460;7.008;2023-07-31T00:46:47;32.63;;;10.73;;
27533;SDS011;14973;51.460;7.008;2023-07-31T00:49:13;36.10;;;9.45;;
27533;SDS011;14973;51.460;7.008;2023-07-31T00:51:39;27.85;;;8.85;;
27533;SDS011;14973;51.460;7.008;2023-07-31T00:54:05;28.90;;;8.30;;
27533;SDS011;14973;51.460;7.008;2023-07-31T00:56:31;30.85;;;9.60;;
27533;SDS011;14973;51.460;7.008;2023-07-31T00:58:57;33.40;;;8.70;;
27533;SDS011;14973;51.460;7.008;2023-07-31T01:01:23;23.42;;;8.25;;
27533;SDS011;14973;51.460;7.008;2023-07-31T01:03:49;18.65;;;7.35;;
27533;SDS011;14973;51.460;7.008;2023-07-31T01:11:38;29.63;;;7.88;;
27533;SDS011;14973;51.460;7.008;2023-07-31T01:14:16;25.65;;;7.57;;
27533;SDS011;14973;51.460;7.008;2023-07-31T01:16:41;27.00;;;7.47;;
27533;SDS011;14973;51.460;7.008;2023-07-31T01:19:07;23.83;;;7.00;;
27533;SDS011;14973;51.460;7.008;2023-07-31T01:26:55;27.48;;;7.70;;
27533;SDS011;14973;51.460;7.008;2023-07-31T01:32:21;33.28;;;9.30;;
27533;SDS011;14973;51.460;7.008;2023-07-31T01:34:48;24.88;;;7.70;;
27533;SDS011;14973;51.460;7.008;2023-07-31T01:37:14;26.80;;;6.80;;
27533;SDS011;14973;51.460;7.008;2023-07-31T01:39:40;25.02;;;7.03;;
27533;SDS011;14973;51.460;7.008;2023-07-31T01:42:05;25.67;;;7.35;;
27533;SDS011;14973;51.460;7.008;2023-07-31T01:44:32;29.10;;;7.47;;
27533;SDS011;14973;51.460;7.008;2023-07-31T01:46:58;30.27;;;6.80;;
27533;SDS011;14973;51.460;7.008;2023-07-31T01:49:25;23.88;;;7.20;;
27533;SDS011;14973;51.460;7.008;2023-07-31T01:51:50;22.75;;;6.28;;
27533;SDS011;14973;51.460;7.008;2023-07-31T01:54:16;23.48;;;7.70;;
27533;SDS011;14973;51.460;7.008;2023-07-31T01:56:41;27.13;;;6.85;;
27533;SDS011;14973;51.460;7.008;2023-07-31T01:59:07;26.17;;;6.30;;
27533;SDS011;14973;51.460;7.008;2023-07-31T02:01:33;20.15;;;6.15;;
27533;SDS011;14973;51.460;7.008;2023-07-31T02:03:58;27.58;;;7.20;;
27533;SDS011;14973;51.460;7.008;2023-07-31T02:06:24;27.55;;;7.10;;
27533;SDS011;14973;51.460;7.008;2023-07-31T02:08:49;28.77;;;7.15;;
27533;SDS011;14973;51.460;7.008;2023-07-31T02:11:15;25.05;;;8.07;;
27533;SDS011;14973;51.460;7.008;2023-07-31T02:13:40;23.67;;;5.53;;
27533;SDS011;14973;51.460;7.008;2023-07-31T02:16:06;22.83;;;6.47;;
27533;SDS011;14973;51.460;7.008;2023-07-31T02:18:32;22.80;;;7.05;;
27533;SDS011;14973;51.460;7.008;2023-07-31T02:20:57;23.70;;;6.03;;
27533;SDS011;14973;51.460;7.008;2023-07-31T02:23:23;26.00;;;6.18;;
27533;SDS011;14973;51.460;7.008;2023-07-31T02:25:48;19.35;;;6.38;;
27533;SDS011;14973;51.460;7.008;2023-07-31T02:28:14;18.20;;;6.25;;
27533;SDS011;14973;51.460;7.008;2023-07-31T02:30:39;23.50;;;6.22;;
27533;SDS011;14973;51.460;7.008;2023-07-31T02:33:08;22.48;;;6.95;;
27533;SDS011;14973;51.460;7.008;2023-07-31T02:35:34;16.70;;;5.57;;
27533;SDS011;14973;51.460;7.008;2023-07-31T02:37:59;24.60;;;6.25;;
27533;SDS011;14973;51.460;7.008;2023-07-31T02:40:25;21.42;;;6.45;;
27533;SDS011;14973;51.460;7.008;2023-07-31T02:42:50;24.80;;;6.97;;
27533;SDS011;14973;51.460;7.008;2023-07-31T02:45:16;28.45;;;6.60;;
27533;SDS011;14973;51.460;7.008;2023-07-31T02:47:41;23.38;;;7.40;;
27533;SDS011;14973;51.460;7.008;2023-07-31T02:50:07;22.90;;;6.40;;
27533;SDS011;14973;51.460;7.008;2023-07-31T02:52:33;28.77;;;7.35;;
27533;SDS011;14973;51.460;7.008;2023-07-31T02:54:58;17.17;;;6.78;;
27533;SDS011;14973;51.460;7.008;2023-07-31T02:57:24;20.15;;;6.35;;
27533;SDS011;14973;51.460;7.008;2023-07-31T02:59:49;17.55;;;5.85;;
27533;SDS011;14973;51.460;7.008;2023-07-31T03:02:15;22.63;;;7.43;;
27533;SDS011;14973;51.460;7.008;2023-07-31T03:04:40;25.73;;;6.78;;
27533;SDS011;14973;51.460;7.008;2023-07-31T03:07:06;30.60;;;6.82;;
27533;SDS011;14973;51.460;7.008;2023-07-31T03:09:31;26.70;;;7.25;;
27533;SDS011;14973;51.460;7.008;2023-07-31T03:11:57;20.50;;;5.97;;
27533;SDS011;14973;51.460;7.008;2023-07-31T03:14:22;22.92;;;6.45;;
27533;SDS011;14973;51.460;7.008;2023-07-31T03:16:48;24.45;;;6.93;;
27533;SDS011;14973;51.460;7.008;2023-07-31T03:19:14;23.42;;;6.35;;
27533;SDS011;14973;51.460;7.008;2023-07-31T03:21:39;29.70;;;6.55;;
27533;SDS011;14973;51.460;7.008;2023-07-31T03:24:05;24.52;;;6.75;;
27533;SDS011;14973;51.460;7.008;2023-07-31T03:26:31;31.33;;;6.97;;
27533;SDS011;14973;51.460;7.008;2023-07-31T03:28:57;28.02;;;6.82;;
27533;SDS011;14973;51.460;7.008;2023-07-31T03:31:23;20.73;;;5.95;;
27533;SDS011;14973;51.460;7.008;2023-07-31T03:33:48;30.10;;;7.40;;
27533;SDS011;14973;51.460;7.008;2023-07-31T03:36:14;26.50;;;6.13;;
27533;SDS011;14973;51.460;7.008;2023-07-31T03:38:40;27.02;;;6.32;;
27533;SDS011;14973;51.460;7.008;2023-07-31T03:41:05;28.17;;;6.13;;
27533;SDS011;14973;51.460;7.008;2023-07-31T03:43:31;16.30;;;5.85;;
27533;SDS011;14973;51.460;7.008;2023-07-31T03:45:58;20.95;;;6.75;;
27533;SDS011;14973;51.460;7.008;2023-07-31T03:48:25;17.35;;;5.57;;
27533;SDS011;14973;51.460;7.008;2023-07-31T03:50:50;27.38;;;6.78;;
27533;SDS011;14973;51.460;7.008;2023-07-31T03:53:16;21.50;;;6.07;;
27533;SDS011;14973;51.460;7.008;2023-07-31T03:55:41;25.05;;;7.53;;
27533;SDS011;14973;51.460;7.008;2023-07-31T03:58:07;20.02;;;6.70;;
27533;SDS011;14973;51.460;7.008;2023-07-31T04:00:32;20.98;;;6.22;;
27533;SDS011;14973;51.460;7.008;2023-07-31T04:02:58;20.67;;;6.63;;
27533;SDS011;14973;51.460;7.008;2023-07-31T04:05:24;20.08;;;6.03;;
27533;SDS011;14973;51.460;7.008;2023-07-31T04:07:49;23.73;;;6.05;;
27533;SDS011;14973;51.460;7.008;2023-07-31T04:10:15;21.83;;;6.82;;
27533;SDS011;14973;51.460;7.008;2023-07-31T04:12:40;23.52;;;6.10;;
27533;SDS011;14973;51.460;7.008;2023-07-31T04:15:06;18.88;;;5.82;;
27533;SDS011;14973;51.460;7.008;2023-07-31T04:17:32;19.88;;;5.97;;
27533;SDS011;14973;51.460;7.008;2023-07-31T04:19:57;19.25;;;5.82;;
27533;SDS011;14973;51.460;7.008;2023-07-31T04:22:23;22.23;;;7.70;;
27533;SDS011;14973;51.460;7.008;2023-07-31T04:24:49;26.95;;;6.75;;
27533;SDS011;14973;51.460;7.008;2023-07-31T04:27:14;21.33;;;5.63;;
27533;SDS011;14973;51.460;7.008;2023-07-31T04:29:40;15.15;;;5.38;;
27533;SDS011;14973;51.460;7.008;2023-07-31T04:32:07;20.25;;;5.63;;
27533;SDS011;14973;51.460;7.008;2023-07-31T04:34:33;19.13;;;6.03;;
27533;SDS011;14973;51.460;7.008;2023-07-31T04:36:58;24.38;;;6.75;;
27533;SDS011;14973;51.460;7.008;2023-07-31T04:39:24;19.38;;;5.70;;
27533;SDS011;14973;51.460;7.008;2023-07-31T04:41:49;20.70;;;6.43;;
27533;SDS011;14973;51.460;7.008;2023-07-31T04:44:15;27.55;;;6.15;;
27533;SDS011;14973;51.460;7.008;2023-07-31T04:46:40;18.40;;;6.15;;
27533;SDS011;14973;51.460;7.008;2023-07-31T04:49:06;21.35;;;5.93;;
27533;SDS011;14973;51.460;7.008;2023-07-31T04:51:31;28.08;;;6.55;;
27533;SDS011;14973;51.460;7.008;2023-07-31T04:53:57;19.27;;;5.78;;
27533;SDS011;14973;51.460;7.008;2023-07-31T04:56:23;19.23;;;6.68;;
27533;SDS011;14973;51.460;7.008;2023-07-31T04:58:48;23.98;;;6.93;;
27533;SDS011;14973;51.460;7.008;2023-07-31T05:01:14;23.35;;;6.38;;
27533;SDS011;14973;51.460;7.008;2023-07-31T05:03:39;23.25;;;6.43;;
27533;SDS011;14973;51.460;7.008;2023-07-31T05:06:05;13.68;;;5.90;;
27533;SDS011;14973;51.460;7.008;2023-07-31T05:08:30;15.52;;;6.18;;
27533;SDS011;14973;51.460;7.008;2023-07-31T05:10:56;24.98;;;7.13;;
27533;SDS011;14973;51.460;7.008;2023-07-31T05:13:21;17.08;;;6.00;;
27533;SDS011;14973;51.460;7.008;2023-07-31T05:15:47;24.38;;;6.85;;
27533;SDS011;14973;51.460;7.008;2023-07-31T05:18:14;54.20;;;8.43;;
27533;SDS011;14973;51.460;7.008;2023-07-31T05:20:40;21.27;;;6.82;;
27533;SDS011;14973;51.460;7.008;2023-07-31T05:23:05;17.70;;;6.03;;
27533;SDS011;14973;51.460;7.008;2023-07-31T05:25:31;16.45;;;7.00;;
27533;SDS011;14973;51.460;7.008;2023-07-31T05:27:57;21.05;;;7.20;;
27533;SDS011;14973;51.460;7.008;2023-07-31T05:30:22;17.77;;;6.07;;
27533;SDS011;14973;51.460;7.008;2023-07-31T05:32:48;16.48;;;6.50;;
27533;SDS011;14973;51.460;7.008;2023-07-31T05:35:13;24.42;;;7.32;;
27533;SDS011;14973;51.460;7.008;2023-07-31T05:37:39;17.95;;;6.68;;
27533;SDS011;14973;51.460;7.008;2023-07-31T05:40:04;13.52;;;6.70;;
27533;SDS011;14973;51.460;7.008;2023-07-31T05:42:31;16.85;;;6.35;;
27533;SDS011;14973;51.460;7.008;2023-07-31T05:44:56;15.43;;;6.60;;
27533;SDS011;14973;51.460;7.008;2023-07-31T05:47:22;20.70;;;7.90;;
27533;SDS011;14973;51.460;7.008;2023-07-31T05:49:48;20.98;;;6.95;;
27533;SDS011;14973;51.460;7.008;2023-07-31T05:52:14;23.92;;;6.90;;
27533;SDS011;14973;51.460;7.008;2023-07-31T05:54:40;18.58;;;6.80;;
27533;SDS011;14973;51.460;7.008;2023-07-31T05:57:06;19.63;;;6.47;;
27533;SDS011;14973;51.460;7.008;2023-07-31T05:59:32;22.65;;;6.75;;
27533;SDS011;14973;51.460;7.008;2023-07-31T06:01:58;17.75;;;7.38;;
27533;SDS011;14973;51.460;7.008;2023-07-31T06:04:24;15.88;;;6.68;;
27533;SDS011;14973;51.460;7.008;2023-07-31T06:06:50;15.63;;;6.25;;
27533;SDS011;14973;51.460;7.008;2023-07-31T06:09:16;14.52;;;6.20;;
27533;SDS011;14973;51.460;7.008;2023-07-31T06:11:42;18.67;;;7.10;;
27533;SDS011;14973;51.460;7.008;2023-07-31T06:14:07;20.13;;;8.30;;
27533;SDS011;14973;51.460;7.008;2023-07-31T06:16:33;14.90;;;6.47;;
27533;SDS011;14973;51.460;7.008;2023-07-31T06:18:58;22.08;;;6.05;;
27533;SDS011;14973;51.460;7.008;2023-07-31T06:21:24;19.65;;;7.43;;
27533;SDS011;14973;51.460;7.008;2023-07-31T06:23:49;18.77;;;6.63;;
27533;SDS011;14973;51.460;7.008;2023-07-31T06:26:15;18.48;;;6.15;;
27533;SDS011;14973;51.460;7.008;2023-07-31T06:28:41;16.10;;;6.65;;
27533;SDS011;14973;51.460;7.008;2023-07-31T06:31:06;15.80;;;6.95;;
27533;SDS011;14973;51.460;7.008;2023-07-31T06:33:32;20.58;;;8.07;;
27533;SDS011;14973;51.460;7.008;2023-07-31T06:35:58;20.55;;;7.47;;
27533;SDS011;14973;51.460;7.008;2023-07-31T06:38:24;24.70;;;7.80;;
27533;SDS011;14973;51.460;7.008;2023-07-31T06:40:50;19.30;;;7.78;;
27533;SDS011;14973;51.460;7.008;2023-07-31T06:43:16;18.83;;;7.75;;
27533;SDS011;14973;51.460;7.008;2023-07-31T06:45:41;20.38;;;8.85;;
27533;SDS011;14973;51.460;7.008;2023-07-31T06:48:07;13.48;;;7.13;;
27533;SDS011;14973;51.460;7.008;2023-07-31T06:50:33;17.25;;;7.15;;
27533;SDS011;14973;51.460;7.008;2023-07-31T06:52:58;15.98;;;7.13;;
27533;SDS011;14973;51.460;7.008;2023-07-31T06:55:26;19.13;;;7.05;;
27533;SDS011;14973;51.460;7.008;2023-07-31T06:57:52;16.67;;;6.78;;
27533;SDS011;14973;51.460;7.008;2023-07-31T07:00:19;16.02;;;6.78;;
27533;SDS011;14973;51.460;7.008;2023-07-31T07:02:46;14.45;;;6.32;;
27533;SDS011;14973;51.460;7.008;2023-07-31T07:05:15;15.23;;;6.68;;
27533;SDS011;14973;51.460;7.008;2023-07-31T07:07:41;18.17;;;6.47;;
27533;SDS011;14973;51.460;7.008;2023-07-31T07:10:07;11.95;;;6.03;;
27533;SDS011;14973;51.460;7.008;2023-07-31T07:12:33;16.80;;;6.28;;
27533;SDS011;14973;51.460;7.008;2023-07-31T07:14:59;22.45;;;8.07;;
27533;SDS011;14973;51.460;7.008;2023-07-31T07:17:26;19.77;;;6.45;;
27533;SDS011;14973;51.460;7.008;2023-07-31T07:19:52;13.13;;;6.10;;
27533;SDS011;14973;51.460;7.008;2023-07-31T07:22:18;18.63;;;6.50;;
27533;SDS011;14973;51.460;7.008;2023-07-31T07:24:44;15.40;;;6.78;;
27533;SDS011;14973;51.460;7.008;2023-07-31T07:27:09;12.65;;;6.15;;
27533;SDS011;14973;51.460;7.008;2023-07-31T07:29:35;20.95;;;6.15;;
27533;SDS011;14973;51.460;7.008;2023-07-31T07:32:02;12.82;;;5.93;;
27533;SDS011;14973;51.460;7.008;2023-07-31T07:34:28;17.27;;;6.97;;
27533;SDS011;14973;51.460;7.008;2023-07-31T07:36:54;13.30;;;5.78;;
27533;SDS011;14973;51.460;7.008;2023-07-31T07:39:20;15.95;;;6.15;;
27533;SDS011;14973;51.460;7.008;2023-07-31T07:41:46;14.57;;;6.35;;
27533;SDS011;14973;51.460;7.008;2023-07-31T07:44:12;13.30;;;6.30;;
27533;SDS011;14973;51.460;7.008;2023-07-31T07:46:38;14.45;;;6.38;;
27533;SDS011;14973;51.460;7.008;2023-07-31T07:49:04;13.02;;;6.32;;
27533;SDS011;14973;51.460;7.008;2023-07-31T07:51:29;24.13;;;6.40;;
27533;SDS011;14973;51.460;7.008;2023-07-31T07:53:56;15.02;;;5.55;;
27533;SDS011;14973;51.460;7.008;2023-07-31T07:56:25;16.63;;;6.40;;
27533;SDS011;14973;51.460;7.008;2023-07-31T07:58:52;19.88;;;6.45;;
27533;SDS011;14973;51.460;7.008;2023-07-31T08:01:18;19.08;;;6.07;;
27533;SDS011;14973;51.460;7.008;2023-07-31T08:03:43;16.73;;;5.85;;
27533;SDS011;14973;51.460;7.008;2023-07-31T08:06:09;18.40;;;6.00;;
27533;SDS011;14973;51.460;7.008;2023-07-31T08:08:35;12.25;;;5.38;;
27533;SDS011;14973;51.460;7.008;2023-07-31T08:11:01;11.35;;;4.82;;
27533;SDS011;14973;51.460;7.008;2023-07-31T08:13:27;14.90;;;6.05;;
27533;SDS011;14973;51.460;7.008;2023-07-31T08:15:53;15.90;;;5.03;;
27533;SDS011;14973;51.460;7.008;2023-07-31T08:18:18;12.55;;;5.15;;
27533;SDS011;14973;51.460;7.008;2023-07-31T08:20:45;14.68;;;5.72;;
27533;SDS011;14973;51.460;7.008;2023-07-31T08:23:11;13.57;;;4.75;;
27533;SDS011;14973;51.460;7.008;2023-07-31T08:25:36;12.65;;;5.03;;
27533;SDS011;14973;51.460;7.008;2023-07-31T08:28:03;10.40;;;4.88;;
27533;SDS011;14973;51.460;7.008;2023-07-31T08:30:29;10.05;;;4.75;;
27533;SDS011;14973;51.460;7.008;2023-07-31T08:32:55;12.65;;;4.22;;
27533;SDS011;14973;51.460;7.008;2023-07-31T08:35:20;11.45;;;4.25;;
27533;SDS011;14973;51.460;7.008;2023-07-31T08:37:46;8.60;;;4.72;;
27533;SDS011;14973;51.460;7.008;2023-07-31T08:40:12;11.80;;;4.60;;
27533;SDS011;14973;51.460;7.008;2023-07-31T08:42:45;8.65;;;4.10;;
27533;SDS011;14973;51.460;7.008;2023-07-31T08:45:15;12.18;;;4.68;;
27533;SDS011;14973;51.460;7.008;2023-07-31T08:47:48;12.95;;;5.70;;
27533;SDS011;14973;51.460;7.008;2023-07-31T08:50:15;11.30;;;5.15;;
27533;SDS011;14973;51.460;7.008;2023-07-31T08:52:42;11.05;;;4.95;;
27533;SDS011;14973;51.460;7.008;2023-07-31T08:55:07;15.90;;;8.35;;
27533;SDS011;14973;51.460;7.008;2023-07-31T08:57:34;13.85;;;5.60;;
27533;SDS011;14973;51.460;7.008;2023-07-31T09:00:02;16.00;;;10.07;;
27533;SDS011;14973;51.460;7.008;2023-07-31T09:03:16;8.65;;;4.40;;
27533;SDS011;14973;51.460;7.008;2023-07-31T09:05:28;11.23;;;5.53;;
27533;SDS011;14973;51.460;7.008;2023-07-31T09:07:55;12.80;;;5.63;;
27533;SDS011;14973;51.460;7.008;2023-07-31T09:10:21;11.30;;;4.65;;
27533;SDS011;14973;51.460;7.008;2023-07-31T09:12:48;10.02;;;4.95;;
27533;SDS011;14973;51.460;7.008;2023-07-31T09:15:15;6.95;;;4.15;;
27533;SDS011;14973;51.460;7.008;2023-07-31T09:17:41;8.00;;;3.90;;
27533;SDS011;14973;51.460;7.008;2023-07-31T09:20:17;8.98;;;3.85;;
27533;SDS011;14973;51.460;7.008;2023-07-31T09:22:43;7.78;;;4.22;;
27533;SDS011;14973;51.460;7.008;2023-07-31T09:25:18;7.53;;;4.28;;
27533;SDS011;14973;51.460;7.008;2023-07-31T09:28:00;9.05;;;4.38;;
27533;SDS011;14973;51.460;7.008;2023-07-31T09:30:27;10.32;;;4.25;;
27533;SDS011;14973;51.460;7.008;2023-07-31T09:33:05;8.38;;;4.00;;
27533;SDS011;14973;51.460;7.008;2023-07-31T09:35:32;8.20;;;4.05;;
27533;SDS011;14973;51.460;7.008;2023-07-31T09:38:00;7.53;;;3.50;;
27533;SDS011;14973;51.460;7.008;2023-07-31T09:40:32;6.43;;;3.75;;
27533;SDS011;14973;51.460;7.008;2023-07-31T09:43:03;7.22;;;3.78;;
27533;SDS011;14973;51.460;7.008;2023-07-31T09:45:33;7.97;;;3.55;;
27533;SDS011;14973;51.460;7.008;2023-07-31T09:48:02;7.47;;;3.08;;
27533;SDS011;14973;51.460;7.008;2023-07-31T09:50:29;9.23;;;2.65;;
27533;SDS011;14973;51.460;7.008;2023-07-31T09:52:55;6.93;;;3.35;;
27533;SDS011;14973;51.460;7.008;2023-07-31T09:55:21;6.55;;;3.22;;
27533;SDS011;14973;51.460;7.008;2023-07-31T09:57:48;8.32;;;3.63;;
27533;SDS011;14973;51.460;7.008;2023-07-31T10:00:15;5.90;;;3.05;;
27533;SDS011;14973;51.460;7.008;2023-07-31T10:02:44;9.43;;;3.63;;
27533;SDS011;14973;51.460;7.008;2023-07-31T10:05:12;5.20;;;2.72;;
27533;SDS011;14973;51.460;7.008;2023-07-31T10:07:42;5.40;;;2.60;;
27533;SDS011;14973;51.460;7.008;2023-07-31T10:12:41;5.63;;;2.80;;
27533;SDS011;14973;51.460;7.008;2023-07-31T10:15:08;4.97;;;2.65;;
27533;SDS011;14973;51.460;7.008;2023-07-31T10:17:35;5.72;;;3.08;;
27533;SDS011;14973;51.460;7.008;2023-07-31T10:20:01;6.10;;;3.30;;
27533;SDS011;14973;51.460;7.008;2023-07-31T10:22:30;4.35;;;2.45;;
27533;SDS011;14973;51.460;7.008;2023-07-31T10:24:57;7.97;;;4.68;;
27533;SDS011;14973;51.460;7.008;2023-07-31T10:27:23;4.82;;;2.75;;
27533;SDS011;14973;51.460;7.008;2023-07-31T10:29:49;7.38;;;3.58;;
27533;SDS011;14973;51.460;7.008;2023-07-31T10:32:17;6.03;;;3.53;;
27533;SDS011;14973;51.460;7.008;2023-07-31T10:34:43;9.48;;;3.90;;
27533;SDS011;14973;51.460;7.008;2023-07-31T10:37:19;12.18;;;4.20;;
27533;SDS011;14973;51.460;7.008;2023-07-31T10:42:32;7.40;;;4.15;;
27533;SDS011;14973;51.460;7.008;2023-07-31T10:45:00;12.25;;;4.75;;
27533;SDS011;14973;51.460;7.008;2023-07-31T10:47:27;10.27;;;4.10;;
27533;SDS011;14973;51.460;7.008;2023-07-31T10:49:59;9.70;;;5.05;;
27533;SDS011;14973;51.460;7.008;2023-07-31T10:52:46;8.40;;;4.30;;
27533;SDS011;14973;51.460;7.008;2023-07-31T10:58:12;14.35;;;4.15;;
27533;SDS011;14973;51.460;7.008;2023-07-31T11:00:39;18.08;;;4.47;;
27533;SDS011;14973;51.460;7.008;2023-07-31T11:03:07;8.98;;;4.20;;
27533;SDS011;14973;51.460;7.008;2023-07-31T11:08:20;8.20;;;3.78;;
27533;SDS011;14973;51.460;7.008;2023-07-31T11:10:51;10.63;;;4.90;;
27533;SDS011;14973;51.460;7.008;2023-07-31T11:13:29;10.43;;;3.97;;
27533;SDS011;14973;51.460;7.008;2023-07-31T11:16:08;10.15;;;4.03;;
27533;SDS011;14973;51.460;7.008;2023-07-31T11:18:35;10.00;;;4.88;;
27533;SDS011;14973;51.460;7.008;2023-07-31T11:21:01;9.77;;;4.88;;
27533;SDS011;14973;51.460;7.008;2023-07-31T11:23:27;11.55;;;3.90;;
27533;SDS011;14973;51.460;7.008;2023-07-31T11:25:52;7.78;;;3.97;;
27533;SDS011;14973;51.460;7.008;2023-07-31T11:28:24;9.30;;;3.70;;
27533;SDS011;14973;51.460;7.008;2023-07-31T11:30:50;11.93;;;3.75;;
27533;SDS011;14973;51.460;7.008;2023-07-31T11:33:16;7.55;;;3.35;;
27533;SDS011;14973;51.460;7.008;2023-07-31T11:35:43;15.00;;;4.18;;
27533;SDS011;14973;51.460;7.008;2023-07-31T11:38:31;16.48;;;4.32;;
27533;SDS011;14973;51.460;7.008;2023-07-31T11:41:02;10.02;;;3.70;;
27533;SDS011;14973;51.460;7.008;2023-07-31T11:43:29;8.10;;;3.88;;
27533;SDS011;14973;51.460;7.008;2023-07-31T11:45:58;9.43;;;3.90;;
27533;SDS011;14973;51.460;7.008;2023-07-31T11:50:55;9.23;;;3.97;;
27533;SDS011;14973;51.460;7.008;2023-07-31T11:53:44;9.70;;;3.20;;
27533;SDS011;14973;51.460;7.008;2023-07-31T11:56:20;9.05;;;3.55;;
27533;SDS011;14973;51.460;7.008;2023-07-31T11:58:48;9.40;;;3.25;;
27533;SDS011;14973;51.460;7.008;2023-07-31T12:01:18;7.45;;;3.15;;
27533;SDS011;14973;51.460;7.008;2023-07-31T12:03:46;8.35;;;3.47;;
27533;SDS011;14973;51.460;7.008;2023-07-31T12:06:12;9.40;;;3.08;;
27533;SDS011;14973;51.460;7.008;2023-07-31T12:08:39;6.88;;;3.15;;
27533;SDS011;14973;51.460;7.008;2023-07-31T12:11:05;8.40;;;3.00;;
27533;SDS011;14973;51.460;7.008;2023-07-31T12:13:32;7.82;;;3.17;;
27533;SDS011;14973;51.460;7.008;2023-07-31T12:15:59;6.15;;;3.20;;
27533;SDS011;14973;51.460;7.008;2023-07-31T12:18:28;7.43;;;2.75;;
27533;SDS011;14973;51.460;7.008;2023-07-31T12:20:58;8.32;;;3.00;;
27533;SDS011;14973;51.460;7.008;2023-07-31T12:23:26;8.25;;;3.28;;
27533;SDS011;14973;51.460;7.008;2023-07-31T12:26:02;5.97;;;3.33;;
27533;SDS011;14973;51.460;7.008;2023-07-31T12:28:29;6.82;;;3.28;;
27533;SDS011;14973;51.460;7.008;2023-07-31T12:30:59;6.53;;;3.33;;
27533;SDS011;14973;51.460;7.008;2023-07-31T12:33:30;9.98;;;3.80;;
27533;SDS011;14973;51.460;7.008;2023-07-31T12:35:58;8.55;;;3.50;;
27533;SDS011;14973;51.460;7.008;2023-07-31T12:38:25;7.70;;;3.35;;
27533;SDS011;14973;51.460;7.008;2023-07-31T12:40:51;9.98;;;4.10;;
27533;SDS011;14973;51.460;7.008;2023-07-31T12:43:16;6.20;;;3.30;;
27533;SDS011;14973;51.460;7.008;2023-07-31T12:45:42;9.52;;;3.03;;
27533;SDS011;14973;51.460;7.008;2023-07-31T12:48:07;6.90;;;2.90;;
27533;SDS011;14973;51.460;7.008;2023-07-31T12:50:33;10.48;;;2.85;;
27533;SDS011;14973;51.460;7.008;2023-07-31T12:53:01;4.50;;;2.70;;
27533;SDS011;14973;51.460;7.008;2023-07-31T12:55:28;4.30;;;2.38;;
27533;SDS011;14973;51.460;7.008;2023-07-31T12:57:53;5.55;;;3.20;;
27533;SDS011;14973;51.460;7.008;2023-07-31T13:00:19;5.00;;;2.92;;
27533;SDS011;14973;51.460;7.008;2023-07-31T13:02:45;7.60;;;2.85;;
27533;SDS011;14973;51.460;7.008;2023-07-31T13:05:10;5.82;;;3.05;;
27533;SDS011;14973;51.460;7.008;2023-07-31T13:07:36;3.42;;;2.35;;
27533;SDS011;14973;51.460;7.008;2023-07-31T13:10:01;6.85;;;2.83;;
27533;SDS011;14973;51.460;7.008;2023-07-31T13:12:27;7.95;;;2.80;;
27533;SDS011;14973;51.460;7.008;2023-07-31T13:14:53;10.70;;;3.22;;
27533;SDS011;14973;51.460;7.008;2023-07-31T13:17:18;8.02;;;2.70;;
27533;SDS011;14973;51.460;7.008;2023-07-31T13:19:44;6.30;;;2.20;;
27533;SDS011;14973;51.460;7.008;2023-07-31T13:22:09;5.45;;;2.70;;
27533;SDS011;14973;51.460;7.008;2023-07-31T13:24:35;4.97;;;2.35;;
27533;SDS011;14973;51.460;7.008;2023-07-31T13:27:00;14.93;;;6.13;;
27533;SDS011;14973;51.460;7.008;2023-07-31T13:29:26;5.43;;;3.53;;
27533;SDS011;14973;51.460;7.008;2023-07-31T13:31:52;4.60;;;2.38;;
27533;SDS011;14973;51.460;7.008;2023-07-31T13:34:18;7.60;;;3.13;;
27533;SDS011;14973;51.460;7.008;2023-07-31T13:36:43;6.15;;;3.42;;
27533;SDS011;14973;51.460;7.008;2023-07-31T13:39:09;9.35;;;3.30;;
27533;SDS011;14973;51.460;7.008;2023-07-31T13:41:34;5.97;;;3.22;;
27533;SDS011;14973;51.460;7.008;2023-07-31T13:44:00;8.50;;;3.40;;
27533;SDS011;14973;51.460;7.008;2023-07-31T13:46:26;6.97;;;3.40;;
27533;SDS011;14973;51.460;7.008;2023-07-31T13:48:51;13.05;;;6.72;;
27533;SDS011;14973;51.460;7.008;2023-07-31T13:51:20;7.50;;;3.65;;
27533;SDS011;14973;51.460;7.008;2023-07-31T13:53:46;9.25;;;4.03;;
27533;SDS011;14973;51.460;7.008;2023-07-31T13:56:12;6.75;;;4.13;;
27533;SDS011;14973;51.460;7.008;2023-07-31T13:58:37;7.95;;;4.50;;
27533;SDS011;14973;51.460;7.008;2023-07-31T14:01:03;6.32;;;3.40;;
27533;SDS011;14973;51.460;7.008;2023-07-31T14:03:28;12.43;;;4.07;;
27533;SDS011;14973;51.460;7.008;2023-07-31T14:05:55;9.35;;;3.85;;
27533;SDS011;14973;51.460;7.008;2023-07-31T14:08:21;9.10;;;4.30;;
27533;SDS011;14973;51.460;7.008;2023-07-31T14:10:47;7.90;;;3.72;;
27533;SDS011;14973;51.460;7.008;2023-07-31T14:13:12;6.15;;;3.67;;
27533;SDS011;14973;51.460;7.008;2023-07-31T14:15:38;10.45;;;4.20;;
27533;SDS011;14973;51.460;7.008;2023-07-31T14:18:04;11.85;;;3.50;;
27533;SDS011;14973;51.460;7.008;2023-07-31T14:20:30;14.63;;;6.57;;
27533;SDS011;14973;51.460;7.008;2023-07-31T14:22:55;18.10;;;4.30;;
27533;SDS011;14973;51.460;7.008;2023-07-31T14:25:21;9.35;;;5.03;;
27533;SDS011;14973;51.460;7.008;2023-07-31T14:27:46;8.55;;;4.10;;
27533;SDS011;14973;51.460;7.008;2023-07-31T14:30:12;7.30;;;4.00;;
27533;SDS011;14973;51.460;7.008;2023-07-31T14:32:37;13.52;;;4.10;;
27533;SDS011;14973;51.460;7.008;2023-07-31T14:35:03;7.40;;;4.15;;
27533;SDS011;14973;51.460;7.008;2023-07-31T14:37:44;9.75;;;4.53;;
27533;SDS011;14973;51.460;7.008;2023-07-31T14:40:11;11.98;;;3.85;;
27533;SDS011;14973;51.460;7.008;2023-07-31T14:42:37;8.85;;;4.03;;
27533;SDS011;14973;51.460;7.008;2023-07-31T14:45:04;13.77;;;4.85;;
27533;SDS011;14973;51.460;7.008;2023-07-31T14:47:30;12.10;;;4.80;;
27533;SDS011;14973;51.460;7.008;2023-07-31T14:49:57;11.15;;;4.18;;
27533;SDS011;14973;51.460;7.008;2023-07-31T14:52:23;12.15;;;4.75;;
27533;SDS011;14973;51.460;7.008;2023-07-31T14:54:49;9.13;;;4.40;;
27533;SDS011;14973;51.460;7.008;2023-07-31T14:57:15;12.00;;;5.10;;
27533;SDS011;14973;51.460;7.008;2023-07-31T14:59:40;10.52;;;4.80;;
27533;SDS011;14973;51.460;7.008;2023-07-31T15:02:06;9.27;;;4.53;;